Time;durP1;ratioP1;P1;durP2;ratioP2;P2;SDS_P1;SDS_P2;PMS_P1;PMS_P2;Temp;Humidity;BMP_temperature;BMP_pressure;BME280_temperature;BME280_humidity;BME280_pressure;Samples;Min_cycle;Max_cycle;Signal;HPM_P1;HPM_P2
2022/04/03 00:00:58;;;;;;;4.40;3.10;;;;;;;8.39;61.92;100425.28;5011150;28;20143;-85
2022/04/03 00:03:25;;;;;;;2.85;2.40;;;;;;;8.01;62.32;100373.72;5009552;28;20288;-85
2022/04/03 00:05:52;;;;;;;5.18;3.20;;;;;;;8.43;62.46;100448.72;5010062;28;20076;-84
2022/04/03 00:08:19;;;;;;;8.95;3.78;;;;;;;8.29;62.99;100441.88;5009810;28;20129;-84
2022/04/03 00:10:46;;;;;;;4.55;3.42;;;;;;;8.22;62.79;100432.78;5010815;28;20467;-86
2022/04/03 00:13:13;;;;;;;6.60;3.80;;;;;;;7.38;62.46;100288.97;5013663;28;20048;-85
2022/04/03 00:15:42;;;;;;;4.10;3.38;;;;;;;8.40;63.01;100459.56;5045886;28;20049;-85
2022/04/03 00:18:10;;;;;;;4.95;3.50;;;;;;;8.30;63.22;100470.03;5029571;28;20049;-84
2022/04/03 00:20:37;;;;;;;6.72;3.45;;;;;;;8.20;63.48;100453.22;5029701;28;20084;-85
2022/04/03 00:23:04;;;;;;;5.05;3.45;;;;;;;8.22;63.25;100455.75;5029103;28;20053;-84
2022/04/03 00:25:31;;;;;;;4.47;2.80;;;;;;;8.25;63.50;100466.06;5029374;28;20084;-85
2022/04/03 00:27:58;;;;;;;6.53;3.60;;;;;;;7.80;63.27;100387.72;5029149;28;20249;-84
2022/04/03 00:30:24;;;;;;;6.15;3.20;;;;;;;7.95;63.90;100429.75;5029009;28;20100;-84
2022/04/03 00:32:51;;;;;;;4.18;2.90;;;;;;;8.19;64.12;100456.84;5029410;28;20057;-84
2022/04/03 00:35:20;;;;;;;5.55;3.60;;;;;;;7.98;63.17;100405.69;5029590;28;20041;-84
2022/04/03 00:37:46;;;;;;;6.63;3.35;;;;;;;8.26;63.39;100454.53;5030067;28;20049;-83
2022/04/03 00:40:13;;;;;;;6.90;3.33;;;;;;;8.09;63.29;100434.75;5032107;28;20059;-84
2022/04/03 00:42:40;;;;;;;5.10;3.33;;;;;;;8.28;63.68;100471.13;5032669;28;20132;-84
2022/04/03 00:45:07;;;;;;;5.70;3.58;;;;;;;8.32;63.40;100475.19;5045871;28;20049;-84
2022/04/03 00:47:34;;;;;;;6.68;3.15;;;;;;;8.20;63.92;100463.78;5029155;28;20140;-84
2022/04/03 00:50:02;;;;;;;7.15;3.05;;;;;;;8.22;63.08;100467.16;5028971;28;20099;-84
2022/04/03 00:52:28;;;;;;;5.38;2.97;;;;;;;8.10;63.58;100449.63;5028834;28;20095;-84
2022/04/03 00:54:55;;;;;;;5.82;2.63;;;;;;;8.33;63.30;100469.78;5029031;28;20132;-84
2022/04/03 00:57:24;;;;;;;3.25;2.20;;;;;;;8.22;63.26;100448.66;5028502;28;20057;-84
2022/04/03 00:59:53;;;;;;;8.65;3.42;;;;;;;8.48;62.89;100477.47;5028425;28;20129;-84
2022/04/03 01:02:20;;;;;;;2.95;2.75;;;;;;;8.14;62.93;100424.63;5027990;28;20148;-84
2022/04/03 01:04:47;;;;;;;4.68;2.88;;;;;;;8.44;63.20;100486.59;5029792;28;20111;-84
2022/04/03 01:07:18;;;;;;;5.45;2.72;;;;;;;8.22;63.52;100451.28;5028788;28;20065;-83
2022/04/03 01:09:44;;;;;;;3.95;2.70;;;;;;;8.40;62.98;100469.28;5029957;28;20137;-83
2022/04/03 01:12:11;;;;;;;6.65;3.28;;;;;;;8.42;63.11;100483.25;5034729;28;20041;-85
2022/04/03 01:14:40;;;;;;;7.43;3.35;;;;;;;8.26;63.64;100468.59;5029890;28;20045;-85
2022/04/03 01:17:10;;;;;;;5.53;3.30;;;;;;;8.33;63.28;100477.72;5034212;28;20105;-85
2022/04/03 01:19:41;;;;;;;4.07;2.83;;;;;;;8.34;62.89;100479.38;5016213;28;20077;-85
2022/04/03 01:22:08;;;;;;;5.82;3.10;;;;;;;8.51;63.45;100506.31;5025161;28;20042;-85
2022/04/03 01:24:35;;;;;;;2.88;2.60;;;;;;;7.97;62.86;100414.59;5024753;28;20551;-84
2022/04/03 01:27:03;;;;;;;4.18;2.75;;;;;;;8.03;62.83;100429.94;5008970;28;20137;-84
2022/04/03 01:29:30;;;;;;;5.22;3.10;;;;;;;8.50;62.84;100507.28;5025607;28;20107;-84
2022/04/03 01:31:57;;;;;;;4.28;3.33;;;;;;;8.18;63.23;100460.47;5024735;28;20045;-84
2022/04/03 01:34:23;;;;;;;3.97;2.90;;;;;;;8.48;63.04;100503.91;5008285;28;20046;-84
2022/04/03 01:36:50;;;;;;;5.85;2.97;;;;;;;8.51;62.97;100514.25;5008402;28;20503;-84
2022/04/03 01:39:17;;;;;;;5.72;2.63;;;;;;;8.56;62.97;100512.06;5008300;28;20054;-84
2022/04/03 01:41:44;;;;;;;6.10;2.90;;;;;;;8.18;62.25;100452.53;5009029;28;20411;-84
2022/04/03 01:44:12;;;;;;;3.60;2.97;;;;;;;8.46;61.99;100484.69;5011043;28;20510;-85
2022/04/03 01:46:39;;;;;;;4.65;2.90;;;;;;;8.45;62.42;100493.59;5027346;28;20476;-85
2022/04/03 01:49:07;;;;;;;4.25;3.10;;;;;;;8.33;62.99;100484.81;5025238;28;20161;-85
2022/04/03 01:51:34;;;;;;;5.05;2.90;;;;;;;8.51;62.80;100512.44;5024061;28;20416;-84
2022/04/03 01:54:02;;;;;;;4.38;3.35;;;;;;;8.07;62.30;100432.22;5007979;28;20092;-84
2022/04/03 01:56:29;;;;;;;3.33;2.80;;;;;;;8.29;62.04;100468.34;5024226;28;20101;-84
2022/04/03 01:58:55;;;;;;;5.40;3.50;;;;;;;8.37;62.44;100491.50;5008084;28;20132;-84
2022/04/03 02:01:22;;;;;;;3.25;2.95;;;;;;;8.74;62.12;100530.91;5007318;28;20134;-84
2022/04/03 02:03:49;;;;;;;3.45;3.08;;;;;;;8.56;62.22;100515.53;5007448;28;20042;-85
2022/04/03 02:06:16;;;;;;;4.25;3.38;;;;;;;8.56;62.61;100527.94;5009041;28;20231;-84
2022/04/03 02:08:43;;;;;;;8.25;3.70;;;;;;;8.58;63.38;100541.06;5008904;28;20141;-84
2022/04/03 02:11:10;;;;;;;3.95;3.50;;;;;;;7.87;63.96;100441.78;5023785;28;20562;-84
2022/04/03 02:13:36;;;;;;;5.00;4.50;;;;;;;8.62;63.49;100542.50;5015665;28;20045;-84
2022/04/03 02:16:03;;;;;;;6.55;4.70;;;;;;;8.34;63.89;100519.06;5027423;28;20128;-84
2022/04/03 02:18:30;;;;;;;5.47;4.85;;;;;;;8.60;63.86;100541.78;5027142;28;20049;-84
2022/04/03 02:20:57;;;;;;;7.50;5.10;;;;;;;8.51;63.94;100543.34;5027331;28;20151;-84
2022/04/03 02:23:23;;;;;;;4.90;4.50;;;;;;;8.52;63.69;100543.22;5027178;28;20045;-84
2022/04/03 02:25:52;;;;;;;6.35;4.80;;;;;;;8.43;64.85;100548.44;5027094;28;20170;-84
2022/04/03 02:28:19;;;;;;;6.43;5.03;;;;;;;8.59;63.52;100548.00;5027181;28;20061;-84
2022/04/03 02:30:47;;;;;;;7.63;5.40;;;;;;;8.40;64.63;100546.88;5028243;28;20046;-84
2022/04/03 02:33:14;;;;;;;6.00;5.40;;;;;;;8.51;64.03;100556.56;5027342;28;20523;-84
2022/04/03 02:35:41;;;;;;;6.25;5.65;;;;;;;8.39;64.58;100565.47;5028318;28;20258;-84
2022/04/03 02:38:08;;;;;;;6.38;5.78;;;;;;;8.10;65.17;100547.47;5028108;28;20095;-83
2022/04/03 02:40:35;;;;;;;7.93;5.95;;;;;;;8.17;65.16;100569.81;5026976;28;20061;-83
2022/04/03 02:43:02;;;;;;;6.93;6.03;;;;;;;8.27;65.29;100581.34;5026874;28;20053;-84
2022/04/03 02:45:29;;;;;;;7.13;5.72;;;;;;;7.91;66.03;100537.50;5026729;28;20141;-84
2022/04/03 02:47:56;;;;;;;6.55;5.95;;;;;;;8.30;65.15;100597.00;5026511;28;20129;-84
2022/04/03 02:50:24;;;;;;;7.28;5.97;;;;;;;8.07;66.46;100575.00;5026769;28;20136;-83
2022/04/03 02:52:53;;;;;;;9.38;7.03;;;;;;;8.09;65.87;100565.16;5026561;28;20349;-83
2022/04/03 02:55:20;;;;;;;6.85;6.10;;;;;;;8.19;66.17;100593.50;5026692;28;20042;-84
2022/04/03 02:57:47;;;;;;;7.20;6.53;;;;;;;7.96;66.86;100566.22;5026666;28;20046;-84
2022/04/03 03:00:14;;;;;;;7.90;7.10;;;;;;;7.98;65.72;100548.44;5027124;28;20128;-83
2022/04/03 03:02:42;;;;;;;7.85;6.38;;;;;;;7.45;66.46;100478.56;5026150;28;20051;-85
2022/04/03 03:05:09;;;;;;;7.68;6.85;;;;;;;8.22;66.64;100606.47;5026996;28;20148;-84
2022/04/03 03:07:37;;;;;;;7.00;6.35;;;;;;;8.15;67.23;100614.06;5026693;28;20072;-85
2022/04/03 03:10:05;;;;;;;8.55;6.20;;;;;;;7.82;66.74;100543.53;5027233;28;20055;-84
2022/04/03 03:12:32;;;;;;;7.18;6.53;;;;;;;7.88;67.13;100559.72;5027776;28;20091;-84
2022/04/03 03:14:59;;;;;;;7.93;7.13;;;;;;;7.81;66.45;100539.19;5008339;28;20140;-84
2022/04/03 03:17:27;;;;;;;7.88;7.18;;;;;;;8.22;66.99;100620.53;5022939;28;20133;-84
2022/04/03 03:19:53;;;;;;;8.15;7.43;;;;;;;8.25;66.33;100622.09;5007994;28;20141;-83
2022/04/03 03:22:21;;;;;;;8.45;7.05;;;;;;;8.17;66.56;100622.72;5008669;28;20053;-84
2022/04/03 03:24:48;;;;;;;8.40;7.70;;;;;;;8.09;66.48;100598.69;5008300;28;20140;-83
2022/04/03 03:27:15;;;;;;;8.35;7.53;;;;;;;7.15;66.68;100452.69;5006625;28;20077;-84
2022/04/03 03:29:41;;;;;;;7.50;6.85;;;;;;;7.59;66.63;100542.66;5006291;28;20141;-84
2022/04/03 03:32:08;;;;;;;8.00;7.20;;;;;;;6.47;66.95;100359.38;5007565;28;20139;-84
2022/04/03 03:34:35;;;;;;;9.20;7.93;;;;;;;8.10;67.54;100640.84;5006539;28;20053;-84
2022/04/03 03:37:02;;;;;;;8.30;7.10;;;;;;;8.19;67.36;100649.06;5006801;28;20148;-84
2022/04/03 03:39:29;;;;;;;8.27;7.57;;;;;;;8.11;67.48;100644.38;5007172;28;20054;-84
2022/04/03 03:41:55;;;;;;;7.97;7.18;;;;;;;8.03;67.49;100641.44;5009040;28;20042;-84
2022/04/03 03:44:23;;;;;;;8.32;7.57;;;;;;;8.11;67.77;100639.91;5010695;28;20050;-84
2022/04/03 03:46:50;;;;;;;7.80;7.10;;;;;;;8.04;67.79;100637.88;5008789;28;20438;-85
2022/04/03 03:49:16;;;;;;;8.70;7.80;;;;;;;8.15;67.58;100651.06;5006422;28;20142;-84
2022/04/03 03:51:43;;;;;;;9.55;8.25;;;;;;;8.31;66.88;100672.72;5006325;28;20056;-83
2022/04/03 03:54:10;;;;;;;8.85;7.90;;;;;;;7.86;67.30;100609.25;5007562;28;20050;-85
2022/04/03 03:56:36;;;;;;;9.10;7.85;;;;;;;7.71;67.55;100592.75;5007467;28;20141;-83
2022/04/03 03:59:05;;;;;;;9.23;7.82;;;;;;;8.06;67.71;100654.47;5006830;28;20567;-85
2022/04/03 04:01:32;;;;;;;8.90;8.10;;;;;;;8.12;67.59;100654.78;5007235;28;20081;-85
2022/04/03 04:03:59;;;;;;;9.30;8.40;;;;;;;8.13;67.68;100658.28;5010536;28;20045;-84
2022/04/03 04:06:25;;;;;;;9.18;8.27;;;;;;;8.35;68.36;100695.34;5019555;28;20050;-85
2022/04/03 04:08:52;;;;;;;9.43;8.40;;;;;;;8.29;68.93;100706.38;5020774;28;20061;-85
2022/04/03 04:11:18;;;;;;;9.88;8.88;;;;;;;8.23;69.35;100693.66;5008933;28;20042;-84
2022/04/03 04:13:45;;;;;;;10.00;9.02;;;;;;;8.13;69.49;100684.72;5014602;28;20566;-85
2022/04/03 04:16:13;;;;;;;9.38;8.35;;;;;;;8.17;70.19;100707.34;5026335;28;20533;-85
2022/04/03 04:18:40;;;;;;;9.38;8.48;;;;;;;8.08;71.07;100708.03;5026450;28;20054;-86
2022/04/03 04:21:06;;;;;;;9.13;8.35;;;;;;;8.13;70.76;100722.59;5026995;28;20489;-85
2022/04/03 04:23:33;;;;;;;10.60;8.85;;;;;;;8.06;71.83;100717.91;5029498;28;20160;-84
2022/04/03 04:26:00;;;;;;;10.25;8.98;;;;;;;8.04;71.52;100723.31;5030742;28;20116;-86
2022/04/03 04:28:27;;;;;;;9.70;8.60;;;;;;;7.95;72.29;100724.00;5029723;28;20456;-86
2022/04/03 04:30:56;;;;;;;10.85;9.85;;;;;;;6.96;72.65;100561.47;5029458;28;20088;-89
2022/04/03 04:33:25;;;;;;;11.50;10.20;;;;;;;7.35;73.44;100635.19;5029683;28;20452;-88
2022/04/03 04:35:52;;;;;;;11.50;8.98;;;;;;;6.53;73.96;100525.09;5031221;28;20054;-87
2022/04/03 04:38:19;;;;;;;9.40;8.15;;;;;;;7.62;75.66;100724.72;5032038;28;20452;-87
2022/04/03 04:40:46;;;;;;;7.00;6.40;;;;;;;6.84;74.67;100587.00;5032741;28;20429;-89
2022/04/03 04:43:13;;;;;;;6.15;5.65;;;;;;;6.38;74.96;100534.09;5032278;28;20049;-88
2022/04/03 04:45:40;;;;;;;5.82;5.20;;;;;;;6.13;75.07;100492.84;5032070;28;20115;-88
2022/04/03 04:48:07;;;;;;;6.15;4.72;;;;;;;5.93;75.29;100489.81;5048678;28;20061;-89
2022/04/03 04:50:33;;;;;;;5.25;4.65;;;;;;;7.47;74.93;100746.03;5032490;28;20053;-87
2022/04/03 04:53:00;;;;;;;5.30;4.07;;;;;;;7.34;73.99;100755.00;5031721;28;20430;-85
2022/04/03 04:55:27;;;;;;;5.72;5.20;;;;;;;6.40;74.04;100590.22;5032640;28;20050;-86
2022/04/03 04:57:56;;;;;;;6.57;5.65;;;;;;;6.62;74.29;100626.44;5032318;28;20458;-86
2022/04/03 05:00:26;;;;;;;6.28;5.70;;;;;;;6.74;75.34;100649.28;5033723;28;20109;-86
2022/04/03 05:02:52;;;;;;;5.45;5.05;;;;;;;6.35;75.14;100581.78;5033169;28;20068;-89
2022/04/03 05:05:22;;;;;;;6.93;6.00;;;;;;;6.20;75.61;100563.47;5033206;28;20515;-86
2022/04/03 05:07:55;;;;;;;6.80;6.20;;;;;;;7.59;76.06;100799.78;5032222;28;20412;-86
2022/04/03 05:10:24;;;;;;;6.75;6.15;;;;;;;7.23;75.28;100745.19;5031702;28;20045;-86
2022/04/03 05:12:51;;;;;;;6.55;5.95;;;;;;;7.31;75.63;100771.06;5031945;28;20413;-87
2022/04/03 05:15:18;;;;;;;6.18;5.57;;;;;;;7.38;74.71;100804.84;5008366;28;20111;-88
2022/04/03 05:17:46;;;;;;;6.97;5.45;;;;;;;7.30;75.31;100790.50;5013505;28;20056;-86
2022/04/03 05:20:14;;;;;;;6.63;6.03;;;;;;;7.41;75.57;100809.91;5026967;28;20057;-87
2022/04/03 05:22:42;;;;;;;5.55;5.05;;;;;;;7.14;75.76;100764.38;5012816;28;20088;-87
2022/04/03 05:25:11;;;;;;;6.03;5.43;;;;;;;6.61;74.83;100651.97;5027838;28;20089;-86
2022/04/03 05:27:42;;;;;;;5.95;4.93;;;;;;;6.40;74.60;100612.13;5031331;28;20049;-86
2022/04/03 05:30:10;;;;;;;5.45;4.95;;;;;;;6.83;74.44;100677.66;5031650;28;20088;-85
2022/04/03 05:32:37;;;;;;;5.82;5.22;;;;;;;7.78;75.82;100823.06;5036213;28;20104;-85
2022/04/03 05:35:06;;;;;;;5.97;5.47;;;;;;;6.26;75.87;100569.25;5003899;28;20134;-86
2022/04/03 05:37:40;;;;;;;7.15;6.45;;;;;;;7.69;75.99;100802.59;5008149;28;20053;-85
2022/04/03 05:40:07;;;;;;;7.15;6.05;;;;;;;6.42;76.13;100577.75;5008739;28;20149;-87
2022/04/03 05:42:35;;;;;;;5.93;5.43;;;;;;;7.99;75.81;100828.56;5011490;28;20054;-86
2022/04/03 05:45:04;;;;;;;5.93;5.32;;;;;;;8.22;74.10;100826.00;5013070;28;20558;-86
2022/04/03 05:47:31;;;;;;;4.82;4.32;;;;;;;7.79;72.65;100719.06;5009148;28;20057;-86
2022/04/03 05:49:58;;;;;;;5.88;4.38;;;;;;;7.63;73.58;100729.06;5008269;28;20077;-85
2022/04/03 05:52:24;;;;;;;5.40;4.05;;;;;;;6.28;73.20;100517.25;4993221;28;20050;-85
2022/04/03 05:54:51;;;;;;;4.10;3.60;;;;;;;7.99;73.63;100838.31;4989257;28;20073;-87
2022/04/03 05:57:18;;;;;;;3.50;3.20;;;;;;;7.92;74.00;100824.69;4988968;28;20508;-85
2022/04/03 05:59:44;;;;;;;3.05;2.85;;;;;;;7.83;74.37;100807.69;4987850;28;20085;-86
2022/04/03 06:02:12;;;;;;;3.65;3.20;;;;;;;8.02;74.37;100849.47;4988118;28;20089;-85
2022/04/03 06:04:39;;;;;;;3.67;3.38;;;;;;;8.01;73.87;100846.94;4994798;28;20054;-85
2022/04/03 06:07:07;;;;;;;3.78;3.47;;;;;;;8.01;74.20;100852.22;5017555;28;20058;-87
2022/04/03 06:09:34;;;;;;;4.65;4.35;;;;;;;8.08;73.82;100851.69;5018819;28;20073;-85
2022/04/03 06:12:00;;;;;;;5.22;4.22;;;;;;;8.10;74.65;100857.69;5014139;28;20103;-85
2022/04/03 06:14:27;;;;;;;5.90;4.75;;;;;;;8.09;74.33;100852.53;5010081;28;20053;-86
2022/04/03 06:16:54;;;;;;;4.28;3.83;;;;;;;7.44;72.78;100726.94;5008204;28;20046;-84
2022/04/03 06:19:21;;;;;;;4.05;3.75;;;;;;;8.22;73.45;100857.72;5006191;28;20081;-84
2022/04/03 06:21:48;;;;;;;4.15;3.75;;;;;;;8.20;72.19;100854.34;5007007;28;20139;-84
2022/04/03 06:24:14;;;;;;;6.32;4.60;;;;;;;8.26;71.13;100861.84;5006145;28;20141;-84
2022/04/03 06:26:41;;;;;;;6.40;4.25;;;;;;;8.04;71.88;100821.13;5005713;28;20054;-83
2022/04/03 06:29:08;;;;;;;6.40;5.75;;;;;;;8.42;71.16;100874.78;5006652;28;20049;-84
2022/04/03 06:31:34;;;;;;;5.65;5.07;;;;;;;8.47;71.43;100877.91;5006584;28;20331;-84
2022/04/03 06:34:02;;;;;;;5.95;4.95;;;;;;;8.36;71.54;100876.06;5022138;28;20057;-84
2022/04/03 06:36:29;;;;;;;6.50;5.47;;;;;;;8.15;71.64;100841.47;5021925;28;20476;-84
2022/04/03 06:38:55;;;;;;;6.63;5.93;;;;;;;8.05;71.90;100820.16;5022072;28;20136;-84
2022/04/03 06:41:23;;;;;;;6.82;5.80;;;;;;;7.96;72.76;100831.44;5022625;28;20056;-84
2022/04/03 06:43:50;;;;;;;7.55;6.35;;;;;;;8.38;72.13;100895.31;5005133;28;20070;-83
2022/04/03 06:46:16;;;;;;;6.78;5.95;;;;;;;8.39;72.38;100885.56;5005820;28;20137;-84
2022/04/03 06:48:44;;;;;;;7.20;6.43;;;;;;;7.87;72.98;100817.09;5014464;28;20104;-84
2022/04/03 06:51:10;;;;;;;7.43;6.82;;;;;;;8.31;72.16;100879.03;5007799;28;20054;-83
2022/04/03 06:53:37;;;;;;;6.93;6.13;;;;;;;8.40;71.49;100882.84;5010594;28;20438;-84
2022/04/03 06:56:03;;;;;;;7.20;6.38;;;;;;;8.66;71.14;100925.84;5009586;28;20046;-85
2022/04/03 06:58:30;;;;;;;6.50;5.90;;;;;;;8.54;71.04;100922.34;5008839;28;20054;-84
2022/04/03 07:00:57;;;;;;;6.88;6.22;;;;;;;8.46;71.63;100908.00;5009458;28;20147;-84
2022/04/03 07:03:24;;;;;;;7.18;6.50;;;;;;;8.35;71.17;100900.84;5011499;28;20096;-84
2022/04/03 07:05:51;;;;;;;6.10;5.55;;;;;;;8.49;70.39;100919.19;5011120;28;20086;-84
2022/04/03 07:08:17;;;;;;;7.00;5.30;;;;;;;8.64;70.60;100956.91;5007883;28;20128;-84
2022/04/03 07:10:46;;;;;;;5.97;5.43;;;;;;;8.41;70.00;100920.72;5008270;28;20658;-84
2022/04/03 07:13:13;;;;;;;7.32;5.22;;;;;;;8.46;70.68;100923.88;5008430;28;20136;-84
2022/04/03 07:15:39;;;;;;;5.90;5.30;;;;;;;8.63;69.99;100952.53;5007677;28;20125;-85
2022/04/03 07:18:07;;;;;;;6.15;5.60;;;;;;;8.63;70.66;100973.72;5008655;28;20058;-85
2022/04/03 07:20:34;;;;;;;5.63;4.95;;;;;;;8.42;71.05;100928.53;5009029;28;20124;-83
2022/04/03 07:23:01;;;;;;;6.25;5.75;;;;;;;8.49;71.03;100950.09;5009223;28;20041;-84
2022/04/03 07:25:27;;;;;;;5.95;5.45;;;;;;;8.04;70.92;100866.09;5009351;28;20050;-85
2022/04/03 07:27:54;;;;;;;5.57;5.15;;;;;;;8.71;69.56;100992.53;5009733;28;20053;-84
2022/04/03 07:30:21;;;;;;;6.32;4.93;;;;;;;8.48;70.40;100951.06;5019371;28;20084;-85
2022/04/03 07:32:47;;;;;;;5.20;4.70;;;;;;;8.62;69.40;100976.50;5027026;28;20121;-85
2022/04/03 07:35:14;;;;;;;5.50;5.00;;;;;;;8.44;71.04;100950.44;5027688;28;20057;-85
2022/04/03 07:37:41;;;;;;;5.00;4.60;;;;;;;8.68;71.45;100991.91;5027986;28;20072;-85
2022/04/03 07:40:09;;;;;;;5.10;4.70;;;;;;;8.90;70.15;101013.16;5027278;28;20087;-85
2022/04/03 07:42:36;;;;;;;6.03;5.30;;;;;;;8.85;69.60;101011.81;5025942;28;20060;-85
2022/04/03 07:45:04;;;;;;;5.25;4.75;;;;;;;8.75;69.65;100977.25;5017937;28;20471;-85
2022/04/03 07:47:32;;;;;;;5.15;4.75;;;;;;;8.95;70.24;101018.09;5009215;28;20108;-85
2022/04/03 07:49:59;;;;;;;7.82;5.55;;;;;;;8.92;70.77;101013.88;5009211;28;20057;-85
2022/04/03 07:52:26;;;;;;;5.57;4.90;;;;;;;9.04;70.11;101032.47;5008821;28;20690;-85
2022/04/03 07:54:53;;;;;;;5.65;5.10;;;;;;;8.97;70.02;101018.84;5009737;28;20117;-84
2022/04/03 07:57:19;;;;;;;5.47;4.95;;;;;;;9.12;69.06;101038.84;5010849;28;20404;-84
2022/04/03 07:59:47;;;;;;;6.45;5.57;;;;;;;9.06;69.10;101039.34;5011976;28;20052;-84
2022/04/03 08:02:13;;;;;;;7.20;5.68;;;;;;;9.15;69.31;101049.25;5011578;28;20160;-85
2022/04/03 08:04:40;;;;;;;6.93;4.82;;;;;;;9.11;69.20;101042.47;5011693;28;20100;-85
2022/04/03 08:07:07;;;;;;;5.78;5.30;;;;;;;9.05;69.29;101026.19;5013432;28;20169;-85
2022/04/03 08:09:33;;;;;;;5.18;4.68;;;;;;;9.25;68.97;101053.81;5011762;28;20563;-85
2022/04/03 08:12:00;;;;;;;4.90;4.50;;;;;;;8.83;68.62;100979.31;5011358;28;20487;-85
2022/04/03 08:14:27;;;;;;;5.18;4.68;;;;;;;9.26;68.92;101047.56;5011444;28;20046;-86
2022/04/03 08:16:54;;;;;;;5.25;4.80;;;;;;;9.03;68.43;101012.22;5027579;28;20060;-85
2022/04/03 08:19:21;;;;;;;5.78;4.78;;;;;;;9.20;68.34;101046.25;5012361;28;20046;-85
2022/04/03 08:21:48;;;;;;;4.50;4.10;;;;;;;9.23;67.81;101056.59;5012001;28;20151;-84
2022/04/03 08:24:14;;;;;;;6.47;4.47;;;;;;;8.92;67.21;101019.19;5010889;28;20129;-84
2022/04/03 08:26:42;;;;;;;4.20;3.80;;;;;;;9.19;67.77;101071.88;4997075;28;20050;-84
2022/04/03 08:29:08;;;;;;;4.97;4.45;;;;;;;9.12;67.23;101065.34;4991707;28;20046;-85
2022/04/03 08:31:35;;;;;;;6.13;4.63;;;;;;;9.24;66.69;101086.59;4991965;28;20081;-85
2022/04/03 08:34:02;;;;;;;4.57;3.92;;;;;;;9.23;66.14;101088.41;4991419;28;20091;-85
2022/04/03 08:36:29;;;;;;;8.60;4.70;;;;;;;9.24;67.26;101091.88;4993139;28;20150;-85
2022/04/03 08:38:56;;;;;;;5.30;4.80;;;;;;;9.18;67.67;101091.38;4991322;28;20141;-85
2022/04/03 08:41:23;;;;;;;5.35;4.45;;;;;;;9.31;66.92;101085.16;4992198;28;20057;-85
2022/04/03 08:43:50;;;;;;;5.28;4.30;;;;;;;9.10;66.34;101054.03;4991318;28;20062;-84
2022/04/03 08:46:16;;;;;;;4.93;3.85;;;;;;;9.34;66.54;101087.56;4991143;28;20092;-84
2022/04/03 08:48:46;;;;;;;4.20;3.90;;;;;;;9.36;65.87;101110.34;4992454;28;20444;-84
2022/04/03 08:51:14;;;;;;;4.05;3.67;;;;;;;9.24;66.72;101083.94;4991067;28;20058;-84
2022/04/03 08:53:44;;;;;;;4.55;3.90;;;;;;;9.35;65.95;101091.94;4993221;28;20450;-84
2022/04/03 08:56:11;;;;;;;4.38;3.60;;;;;;;8.80;65.59;100988.34;4994865;28;20308;-82
2022/04/03 08:58:37;;;;;;;4.35;3.95;;;;;;;9.32;64.19;101070.94;4992653;28;20081;-84
2022/04/03 09:01:04;;;;;;;3.25;3.03;;;;;;;9.49;65.25;101110.28;4991378;28;20050;-84
2022/04/03 09:03:31;;;;;;;4.18;3.45;;;;;;;9.49;64.33;101096.16;4991007;28;20439;-84
2022/04/03 09:06:15;;;;;;;3.55;3.22;;;;;;;9.68;64.44;101122.09;4996743;28;20045;-84
2022/04/03 09:08:42;;;;;;;4.20;3.60;;;;;;;9.80;64.26;101110.53;5009919;28;20056;-84
2022/04/03 09:11:10;;;;;;;5.53;3.67;;;;;;;9.71;64.15;101095.34;5009834;28;20060;-84
2022/04/03 09:13:38;;;;;;;3.80;3.47;;;;;;;9.62;63.13;101047.38;5010284;28;20133;-84
2022/04/03 09:16:05;;;;;;;6.28;3.90;;;;;;;9.39;63.02;101019.16;5011863;28;20046;-85
2022/04/03 09:18:49;;;;;;;3.72;3.33;;;;;;;9.82;61.73;101074.16;5010313;28;20053;-84
2022/04/03 09:21:16;;;;;;;4.45;2.92;;;;;;;10.23;61.42;101120.44;5010916;28;20206;-85
2022/04/03 09:24:06;;;;;;;3.45;2.63;;;;;;;10.18;60.38;101091.63;5010534;28;20568;-84
2022/04/03 09:26:34;;;;;;;3.55;2.60;;;;;;;10.45;60.95;101104.53;5010762;28;20068;-84
2022/04/03 09:29:14;;;;;;;4.05;3.20;;;;;;;10.74;61.96;101114.59;5010195;28;20587;-86
2022/04/03 09:31:43;;;;;;;4.72;4.25;;;;;;;11.08;62.10;101131.28;5010519;28;20523;-85
2022/04/03 09:34:29;;;;;;;6.88;3.80;;;;;;;11.32;57.92;101139.03;5010353;28;20053;-84
2022/04/03 09:37:01;;;;;;;3.15;2.53;;;;;;;11.27;57.15;101133.25;5011563;28;20492;-84
2022/04/03 09:39:30;;;;;;;3.30;2.35;;;;;;;11.31;56.66;101129.38;5009837;28;20057;-84
2022/04/03 09:42:11;;;;;;;3.30;2.65;;;;;;;11.06;56.68;101103.97;5011103;28;20584;-85
2022/04/03 09:44:40;;;;;;;6.60;3.10;;;;;;;11.15;56.66;101090.91;5010937;28;20140;-84
2022/04/03 09:47:30;;;;;;;2.65;2.45;;;;;;;11.24;57.57;101128.19;5012026;28;20080;-85
2022/04/03 09:49:58;;;;;;;3.13;2.83;;;;;;;11.29;56.52;101139.28;5011969;28;20050;-84
2022/04/03 09:52:37;;;;;;;3.22;2.92;;;;;;;11.18;57.42;101123.38;5010614;28;20073;-85
2022/04/03 09:55:07;;;;;;;6.22;4.07;;;;;;;11.39;58.24;101130.53;5026082;28;20077;-85
2022/04/03 09:57:40;;;;;;;5.13;3.33;;;;;;;11.34;56.07;101109.66;5009652;28;20137;-85
2022/04/03 10:00:29;;;;;;;6.78;3.35;;;;;;;11.80;56.96;101140.34;5008996;28;20054;-85
2022/04/03 10:03:01;;;;;;;2.60;2.40;;;;;;;11.73;57.00;101075.34;5009613;28;20069;-85
2022/04/03 10:05:29;;;;;;;9.88;3.10;;;;;;;12.12;56.19;101088.84;5008698;28;20085;-84
2022/04/03 10:08:00;;;;;;;3.78;2.53;;;;;;;12.53;53.70;101093.16;5025745;28;20503;-85
2022/04/03 10:10:28;;;;;;;3.58;2.50;;;;;;;12.10;53.55;100990.50;5009399;28;20064;-84
2022/04/03 10:12:55;;;;;;;7.03;2.75;;;;;;;13.20;54.14;101109.31;5009334;28;20244;-86
2022/04/03 10:15:23;;;;;;;2.55;2.15;;;;;;;12.95;52.72;101047.59;5009543;28;20100;-86
2022/04/03 10:17:50;;;;;;;2.47;2.13;;;;;;;12.91;51.16;101019.56;5010855;28;20132;-84
2022/04/03 10:20:16;;;;;;;2.88;2.08;;;;;;;13.68;51.45;101129.78;5009466;28;20050;-85
2022/04/03 10:22:50;;;;;;;3.78;2.47;;;;;;;13.79;51.15;101100.28;5009971;28;20153;-84
2022/04/03 10:25:27;;;;;;;2.65;1.70;;;;;;;13.84;49.31;101113.19;5009596;28;20042;-85
2022/04/03 10:27:58;;;;;;;3.55;2.03;;;;;;;13.42;49.28;101023.72;5009462;28;20057;-85
2022/04/03 10:30:35;;;;;;;1.92;1.75;;;;;;;13.89;48.56;101078.91;5008818;28;20131;-85
2022/04/03 10:33:03;;;;;;;2.58;2.25;;;;;;;14.33;49.35;101122.66;5009528;28;20053;-85
2022/04/03 10:35:29;;;;;;;3.60;2.00;;;;;;;14.40;49.17;101120.25;5008786;28;20415;-84
2022/04/03 10:38:04;;;;;;;2.88;2.20;;;;;;;14.13;48.56;101051.69;5008710;28;20145;-84
2022/04/03 10:40:34;;;;;;;2.53;2.33;;;;;;;14.48;48.80;101111.50;5010913;28;20140;-85
2022/04/03 10:43:06;;;;;;;2.10;1.80;;;;;;;14.54;47.65;101121.63;5008874;28;20049;-85
2022/04/03 10:45:34;;;;;;;4.25;2.40;;;;;;;14.06;48.50;101045.25;5009756;28;20057;-84
2022/04/03 10:48:19;;;;;;;2.70;2.25;;;;;;;14.62;48.18;101118.22;5008455;28;20080;-85
2022/04/03 10:50:58;;;;;;;2.28;2.08;;;;;;;14.54;47.17;101116.28;5008595;28;20058;-84
2022/04/03 10:53:28;;;;;;;2.88;2.30;;;;;;;14.70;47.24;101100.41;5008422;28;20042;-86
2022/04/03 10:55:55;;;;;;;3.95;2.65;;;;;;;14.83;47.06;101080.47;5008838;28;20073;-85
2022/04/03 10:58:22;;;;;;;3.15;2.08;;;;;;;15.15;46.35;101115.56;5010047;28;20147;-86
2022/04/03 11:00:50;;;;;;;2.65;2.15;;;;;;;15.30;45.09;101115.84;5008607;28;20056;-88
2022/04/03 11:03:17;;;;;;;3.88;2.60;;;;;;;15.37;43.43;101116.06;5008312;28;20076;-85
2022/04/03 11:05:48;;;;;;;4.57;2.08;;;;;;;15.69;45.52;101128.00;5008783;28;20053;-85
2022/04/03 11:08:17;;;;;;;3.08;1.70;;;;;;;15.88;44.28;101124.31;5009846;28;20077;-86
2022/04/03 11:10:57;;;;;;;2.28;1.90;;;;;;;15.93;42.17;101088.03;5009243;28;20054;-87
2022/04/03 11:13:30;;;;;;;3.42;1.90;;;;;;;16.31;42.87;101115.34;5009848;28;20096;-86
2022/04/03 11:16:12;;;;;;;4.95;1.70;;;;;;;16.26;42.17;101088.16;5025487;28;20045;-85
2022/04/03 11:18:42;;;;;;;2.08;1.80;;;;;;;16.66;42.85;101122.28;5025263;28;20050;-85
2022/04/03 11:21:23;;;;;;;2.13;1.77;;;;;;;16.53;41.72;101124.63;5012170;28;20046;-86
2022/04/03 11:24:11;;;;;;;6.40;3.10;;;;;;;16.61;41.74;101091.63;5014099;28;20070;-86
2022/04/03 11:26:40;;;;;;;2.92;2.10;;;;;;;17.07;41.83;101126.94;5018923;28;20050;-86
2022/04/03 11:29:09;;;;;;;2.88;1.67;;;;;;;17.08;40.27;101118.72;5016002;28;20057;-86
2022/04/03 11:31:38;;;;;;;5.13;1.80;;;;;;;17.26;40.53;101118.56;5015765;28;20057;-86
2022/04/03 11:34:06;;;;;;;10.40;1.60;;;;;;;17.26;40.90;101123.09;5013998;28;20416;-86
2022/04/03 11:36:33;;;;;;;2.03;1.83;;;;;;;17.07;40.86;101121.56;5012403;28;20058;-85